AirNav   Pilot Hours Calculator
 
 452 users online  

CA84 Torrey Pines Gliderport
San Diego, California, USA

GOING TO SAN DIEGO?


FAA INFORMATION EFFECTIVE 25 FEBRUARY 2021

Location

FAA Identifier: CA84
Lat/Long: 32-53-23.0000N 117-14-49.0000W
32-53.383333N 117-14.816667W
32.8897222,-117.2469444
(estimated)
Elevation: 372 ft. / 113 m (estimated)
Variation: 13E (1985)
From city: 11 miles NW of SAN DIEGO, CA
Time zone: UTC -8 (UTC -7 during Daylight Saving Time)
Zip code: 92037

Gliderport Operations

Gliderport use: Private use. Permission required prior to landing
Activation date: 11/1961
Control tower: no
ARTCC: LOS ANGELES CENTER
FSS: SAN DIEGO FLIGHT SERVICE STATION
Attendance: UNATNDD
Wind indicator: no
Segmented circle: no

Gliderport Communications

WX ASOS at MYF (7 nm SE): 126.9 (858-576-4337)
WX ASOS at SAN (10 nm S): PHONE 619-296-8934
WX AWOS-3P at SEE (14 nm E): 125.45 (619-449-1228)
WX ASOS at CRQ (14 nm N): PHONE 760-930-0864
WX ASOS at RNM (19 nm NE): PHONE 760-789-7699

Nearby radio navigation aids

VOR radial/distance  VOR name  Freq  Var
MZBr335/6.5MISSION BAY VORTAC117.8015E
PGYr307/21.5POGGI VORTAC116.4514E
OCNr143/22.7OCEANSIDE VORTAC115.3015E
TIJr313/25.7TIJUANA VOR/DME116.5012E
JLIr231/36.5JULIAN VORTAC114.0015E

Gliderport Services

Airframe service: NONE
Powerplant service: NONE

Runway Information

Runway 9/27

Dimensions: 1500 x 30 ft. / 457 x 9 m
Surface: asphalt
RUNWAY 9  RUNWAY 27
Traffic pattern: leftleft
Obstructions: nonetrees, 100 ft. from runway

Gliderport Ownership and Management from official FAA records

Ownership: Publicly-owned
Owner: CITY OF SAN DIEGO
202 C STREET MS 2A
SAN DIEGO, CA 92101
Manager: MAX MARIEN
2800 TORREY PINES SCENIC DRIVE
JO JOLLA, CA 92037
Phone 858-452-9858
WORK PHONE 619-535-9505 EXT 1585

Additional Remarks

GLIDER PORT IS LEASED FM CITY TO THE ASSOCD GLIDER CLUB OF SOUTHERN CALIF FOR STUDENT TRAINING & RIDGE SOARING.
ALL ACFT ARE TRAILERED GLIDERS.
ROLLING RWY .6 PERCENT GRADIENT.
EXTENSIVE HANG GLIDER OPERATIONS ON WEEKENDS AND WEEKDAYS.
FOR CD CTC LOS ANGELES ARTCC AT 661-575-2079.

Instrument Procedures

There are no published instrument procedures at CA84.

Some nearby airports with instrument procedures:

KNKX - Miramar MCAS (Joe Foss Field) Airport (5 nm E)
KMYF - Montgomery-GibbsExecutive Airport (7 nm SE)
KSAN - San Diego International Airport (10 nm S)
KNZY - North Island Naval Air Station (Halsey Field) (12 nm S)
KSEE - Gillespie Field Airport (14 nm E)
KCRQ - Mc Clellan-Palomar Airport (14 nm N)
KRNM - Ramona Airport (19 nm NE)
 
Loc | Ops | Rwys | IFR | FBO | Links
Com | Nav | Svcs | Stats | Notes
Area around CA84 (Torrey Pines Gliderport)
 
Road maps at: MapQuest Bing Google
 
Aerial photo
WARNING: Photo may not be current or correct
Aerial photo of CA84 (Torrey Pines Gliderport)
Photo by Doug Fronius
Photo taken 13-Mar-2004
from a 1942 Schweizer TG-2 sailplane.

Do you have a better or more recent aerial photo of Torrey Pines Gliderport that you would like to share? If so, please send us your photo.

 
Sectional chart

 
Airport distance calculator
Flying to Torrey Pines Gliderport? Find the distance to fly.

From to CA84

Sunrise and sunset
Times for 03-Mar-2021
 Local
(UTC-8)
 Zulu
(UTC)
Morning civil twilight05:5113:51
Sunrise06:1514:15
Sunset17:4701:47
Evening civil twilight18:1102:11

Current date and time
Zulu (UTC)  04-Mar-2021 06:22:32
Local (UTC-8)  03-Mar-2021 22:22:32
 
METAR
KNKX 
6nm E 
040555Z 18005KT 10SM CLR 12/10 A3004 RMK AO2 SLP168 60004 T01170100 10133 20111 51036 $
KMYF 
7nm SE 
040553Z AUTO 20003KT 10SM FEW023 12/10 A3004 RMK AO2 SLP171 60001 T01170100 10122 20117 53036
KSAN 
10nm S 
040551Z 21004KT 10SM FEW024 SCT050 14/09 A3006 RMK AO2 SLP177 60001 T01440094 10150 20144 51037 $
KNZY 
11nm S 
040552Z 23005KT 10SM SCT020 SCT025 BKN090 13/09 A3004 RMK AO2 SLP171 60001 T01280089 10133 20128 51038
KCRQ 
15nm N 
040553Z AUTO 00000KT 10SM SCT010 SCT014 BKN028 11/10 A3003 RMK AO2 SLP168 60014 T01110100 10117 20111 53024
KSEE 
15nm E 
040555Z AUTO 00000KT 10SM SCT014 BKN018 OVC024 12/11 A3004 RMK AO2 P0001
KRNM 
19nm NE 
040600Z AUTO 21004KT 10SM SCT016 BKN025 09/08 A3003 RMK AO2 T00890078
TAF
KNKX 
6nm E 
0321/0421 25009KT 9999 SCT030 BKN060 640709 641602 542409 543305 QNH2983INS TEMPO 0321/0401 22015G20KT 6000 TSRA BR BKN020 OVC035 FM040330 VRB05KT 9999 NSW BKN020 QNH2988INS 640709 641602 542409 543305 BECMG 0413/0415 VRB05KT 9999 SCT025 QNH2995INS T08/0414Z T16/0420Z
KSAN 
10nm S 
031005Z 0310/0412 VRB04KT P6SM BKN012 FM031400 15008KT P6SM SCT015 BKN025 FM031900 18013G23KT P6SM -SHRA VCTS BKN020CB BKN040 FM032300 22010KT P6SM -SHRA VCTS BKN025CB BKN040 FM040500 VRB04KT P6SM SCT025 BKN040
KNZY 
11nm S 
0323/0423 19012G18KT 9999 VCTS FEW020 SCT040 BKN090 650609 651503 531809 532709 533604 QNH2981INS TEMPO 0323/0402 VRB15G25KT 3200 TSRA BKN015 BKN040CB OVC060 FM040200 VRB06KT 9999 VCSH FEW020 SCT060 BKN100 BKN200 650609 651503 531809 532709 533604 QNH2986INS TEMPO 0402/0408 8000 SHRA SCT020 BKN050 FM040900 VRB05KT 9999 VCSH FEW025 SCT100 SCT200 600000 500000 QNH2988INS FM042000 28009KT 9999 FEW025 SCT200 QNH2993INS T09/0412Z T18/0421Z FS30022
KCRQ 
15nm N 
031740Z 0318/0418 18014G22KT P6SM -RA VCTS BKN020CB BKN040 FM032200 21010KT P6SM -SHRA VCTS BKN025CB BKN040 FM040300 VRB05KT P6SM VCSH SCT025 BKN040 FM040600 VRB04KT P6SM SCT025 BKN035 FM041100 VRB04KT P6SM SCT020
NOTAMs
Click for the latest NOTAMs
NOTAMs are issued by the DoD/FAA and will open in a separate window not controlled by AirNav.

 

 
 

Would you like to see your business listed on this page?

 If your business provides an interesting product or service to pilots, flight crews, aircraft, or users of the Torrey Pines Gliderport, you should consider listing it here.  To start the listing process, click on the button below
 
Add a business
 

Other Pages about Torrey Pines Gliderport

www.agcsc.org/torrey_pines_info.html
 
Update a link
 
Copyright © AirNav, LLC. All rights reserved. Privacy Policy  Contact